sensor_id;sensor_type;location;lat;lon;timestamp;P1;durP1;ratioP1;P2;durP2;ratioP2
32491;SDS011;20605;49.742;18.802;2023-06-24T07:09:59;8.30;;;7.40;;
32491;SDS011;20605;49.742;18.802;2023-06-24T07:12:25;7.60;;;6.70;;
32491;SDS011;20605;49.742;18.802;2023-06-24T07:14:51;7.00;;;6.40;;
32491;SDS011;20605;49.742;18.802;2023-06-24T07:17:17;5.90;;;5.40;;
32491;SDS011;20605;49.742;18.802;2023-06-24T07:19:42;5.50;;;5.10;;
32491;SDS011;20605;49.742;18.802;2023-06-24T07:22:09;11.70;;;10.10;;
32491;SDS011;20605;49.742;18.802;2023-06-24T07:24:34;12.70;;;10.30;;
32491;SDS011;20605;49.742;18.802;2023-06-24T07:27:00;12.70;;;11.50;;
32491;SDS011;20605;49.742;18.802;2023-06-24T07:29:26;14.20;;;12.70;;
32491;SDS011;20605;49.742;18.802;2023-06-24T07:31:51;19.20;;;13.90;;
32491;SDS011;20605;49.742;18.802;2023-06-24T07:34:17;16.50;;;14.20;;
32491;SDS011;20605;49.742;18.802;2023-06-24T07:36:43;16.20;;;14.00;;
32491;SDS011;20605;49.742;18.802;2023-06-24T07:39:09;15.60;;;12.80;;
32491;SDS011;20605;49.742;18.802;2023-06-24T07:41:35;13.60;;;12.20;;
32491;SDS011;20605;49.742;18.802;2023-06-24T07:44:00;13.20;;;11.80;;
32491;SDS011;20605;49.742;18.802;2023-06-24T07:46:27;15.40;;;13.30;;
32491;SDS011;20605;49.742;18.802;2023-06-24T07:48:53;14.80;;;11.50;;
32491;SDS011;20605;49.742;18.802;2023-06-24T07:51:19;14.80;;;12.60;;
32491;SDS011;20605;49.742;18.802;2023-06-24T07:53:46;14.00;;;12.50;;
32491;SDS011;20605;49.742;18.802;2023-06-24T07:56:15;14.10;;;12.70;;
32491;SDS011;20605;49.742;18.802;2023-06-24T07:58:54;15.00;;;12.70;;
32491;SDS011;20605;49.742;18.802;2023-06-24T08:01:58;13.90;;;12.50;;
32491;SDS011;20605;49.742;18.802;2023-06-24T08:04:23;14.40;;;11.90;;
32491;SDS011;20605;49.742;18.802;2023-06-24T08:06:49;13.10;;;11.70;;
32491;SDS011;20605;49.742;18.802;2023-06-24T08:09:15;13.00;;;11.00;;
32491;SDS011;20605;49.742;18.802;2023-06-24T08:11:42;12.00;;;10.90;;
32491;SDS011;20605;49.742;18.802;2023-06-24T08:14:08;11.70;;;10.50;;
32491;SDS011;20605;49.742;18.802;2023-06-24T08:16:34;12.10;;;9.70;;
32491;SDS011;20605;49.742;18.802;2023-06-24T08:19:00;11.10;;;9.90;;
32491;SDS011;20605;49.742;18.802;2023-06-24T08:21:25;12.70;;;9.90;;
32491;SDS011;20605;49.742;18.802;2023-06-24T08:23:51;11.80;;;10.00;;
32491;SDS011;20605;49.742;18.802;2023-06-24T08:26:19;13.50;;;9.90;;
32491;SDS011;20605;49.742;18.802;2023-06-24T08:28:46;12.40;;;9.20;;
32491;SDS011;20605;49.742;18.802;2023-06-24T08:31:13;11.20;;;9.40;;
32491;SDS011;20605;49.742;18.802;2023-06-24T08:33:41;13.10;;;9.60;;
32491;SDS011;20605;49.742;18.802;2023-06-24T08:36:13;10.80;;;9.70;;
32491;SDS011;20605;49.742;18.802;2023-06-24T08:38:39;10.70;;;9.30;;
32491;SDS011;20605;49.742;18.802;2023-06-24T08:41:04;10.30;;;8.90;;
32491;SDS011;20605;49.742;18.802;2023-06-24T08:43:30;14.70;;;9.50;;
32491;SDS011;20605;49.742;18.802;2023-06-24T08:45:56;10.20;;;9.20;;
32491;SDS011;20605;49.742;18.802;2023-06-24T08:48:22;11.00;;;10.00;;
32491;SDS011;20605;49.742;18.802;2023-06-24T08:50:50;14.00;;;9.30;;
32491;SDS011;20605;49.742;18.802;2023-06-24T08:53:18;12.40;;;9.60;;
32491;SDS011;20605;49.742;18.802;2023-06-24T08:55:45;11.10;;;10.00;;
32491;SDS011;20605;49.742;18.802;2023-06-24T08:58:11;11.30;;;9.70;;
32491;SDS011;20605;49.742;18.802;2023-06-24T09:00:38;10.90;;;9.80;;
32491;SDS011;20605;49.742;18.802;2023-06-24T09:03:04;13.20;;;10.40;;
32491;SDS011;20605;49.742;18.802;2023-06-24T09:05:29;10.40;;;9.40;;
32491;SDS011;20605;49.742;18.802;2023-06-24T09:07:55;10.90;;;9.70;;
32491;SDS011;20605;49.742;18.802;2023-06-24T09:12:56;12.70;;;9.90;;
32491;SDS011;20605;49.742;18.802;2023-06-24T09:15:22;11.20;;;10.10;;
32491;SDS011;20605;49.742;18.802;2023-06-24T09:17:48;11.60;;;10.40;;
32491;SDS011;20605;49.742;18.802;2023-06-24T09:20:13;11.80;;;10.50;;
32491;SDS011;20605;49.742;18.802;2023-06-24T09:22:42;11.40;;;10.30;;
32491;SDS011;20605;49.742;18.802;2023-06-24T09:25:08;12.50;;;11.20;;
32491;SDS011;20605;49.742;18.802;2023-06-24T09:27:33;10.70;;;9.70;;
32491;SDS011;20605;49.742;18.802;2023-06-24T09:29:59;11.40;;;10.30;;
32491;SDS011;20605;49.742;18.802;2023-06-24T09:32:31;12.30;;;10.40;;
32491;SDS011;20605;49.742;18.802;2023-06-24T09:34:57;11.30;;;10.20;;
32491;SDS011;20605;49.742;18.802;2023-06-24T09:37:22;15.00;;;13.40;;
32491;SDS011;20605;49.742;18.802;2023-06-24T09:39:49;17.80;;;14.20;;
32491;SDS011;20605;49.742;18.802;2023-06-24T09:42:15;17.10;;;15.50;;
32491;SDS011;20605;49.742;18.802;2023-06-24T09:44:52;14.30;;;12.90;;
32491;SDS011;20605;49.742;18.802;2023-06-24T09:47:19;19.90;;;15.00;;
32491;SDS011;20605;49.742;18.802;2023-06-24T09:49:45;15.10;;;13.60;;
32491;SDS011;20605;49.742;18.802;2023-06-24T09:52:10;15.80;;;13.20;;
32491;SDS011;20605;49.742;18.802;2023-06-24T09:54:42;13.80;;;12.50;;
32491;SDS011;20605;49.742;18.802;2023-06-24T09:57:11;15.40;;;12.80;;
32491;SDS011;20605;49.742;18.802;2023-06-24T09:59:39;16.30;;;13.00;;
32491;SDS011;20605;49.742;18.802;2023-06-24T10:02:07;14.50;;;12.90;;
32491;SDS011;20605;49.742;18.802;2023-06-24T10:04:39;14.10;;;12.80;;
32491;SDS011;20605;49.742;18.802;2023-06-24T10:07:04;16.70;;;13.20;;
32491;SDS011;20605;49.742;18.802;2023-06-24T10:09:30;14.20;;;12.60;;
32491;SDS011;20605;49.742;18.802;2023-06-24T10:11:56;13.90;;;12.50;;
32491;SDS011;20605;49.742;18.802;2023-06-24T10:14:23;14.00;;;12.60;;
32491;SDS011;20605;49.742;18.802;2023-06-24T10:16:48;13.20;;;11.90;;
32491;SDS011;20605;49.742;18.802;2023-06-24T10:19:19;13.70;;;12.10;;
32491;SDS011;20605;49.742;18.802;2023-06-24T10:21:53;14.10;;;12.00;;
32491;SDS011;20605;49.742;18.802;2023-06-24T10:24:30;14.80;;;12.70;;
32491;SDS011;20605;49.742;18.802;2023-06-24T10:29:31;13.50;;;12.20;;
32491;SDS011;20605;49.742;18.802;2023-06-24T10:32:02;14.50;;;13.00;;
32491;SDS011;20605;49.742;18.802;2023-06-24T10:34:42;14.60;;;11.60;;
32491;SDS011;20605;49.742;18.802;2023-06-24T10:37:10;14.00;;;11.30;;
32491;SDS011;20605;49.742;18.802;2023-06-24T10:47:42;14.10;;;11.60;;
32491;SDS011;20605;49.742;18.802;2023-06-24T10:50:10;13.20;;;11.90;;
32491;SDS011;20605;49.742;18.802;2023-06-24T10:52:39;12.60;;;11.30;;
32491;SDS011;20605;49.742;18.802;2023-06-24T10:55:07;14.00;;;11.90;;
32491;SDS011;20605;49.742;18.802;2023-06-24T10:57:36;14.10;;;11.70;;
32491;SDS011;20605;49.742;18.802;2023-06-24T11:00:03;12.80;;;11.60;;
32491;SDS011;20605;49.742;18.802;2023-06-24T11:02:30;12.30;;;11.00;;
32491;SDS011;20605;49.742;18.802;2023-06-24T11:04:56;14.20;;;11.00;;
32491;SDS011;20605;49.742;18.802;2023-06-24T11:07:26;13.10;;;11.20;;
32491;SDS011;20605;49.742;18.802;2023-06-24T11:10:00;11.20;;;10.10;;
32491;SDS011;20605;49.742;18.802;2023-06-24T11:12:31;14.60;;;11.00;;
32491;SDS011;20605;49.742;18.802;2023-06-24T11:15:00;12.40;;;10.80;;
32491;SDS011;20605;49.742;18.802;2023-06-24T11:17:27;12.30;;;11.20;;
32491;SDS011;20605;49.742;18.802;2023-06-24T11:19:53;14.90;;;11.40;;
32491;SDS011;20605;49.742;18.802;2023-06-24T11:22:20;12.90;;;11.70;;
32491;SDS011;20605;49.742;18.802;2023-06-24T11:24:47;14.00;;;11.60;;
32491;SDS011;20605;49.742;18.802;2023-06-24T11:27:13;11.80;;;10.10;;
32491;SDS011;20605;49.742;18.802;2023-06-24T11:29:39;12.40;;;11.10;;
32491;SDS011;20605;49.742;18.802;2023-06-24T11:32:06;12.80;;;10.80;;
32491;SDS011;20605;49.742;18.802;2023-06-24T11:34:34;12.80;;;11.30;;
32491;SDS011;20605;49.742;18.802;2023-06-24T11:37:09;14.50;;;11.70;;
32491;SDS011;20605;49.742;18.802;2023-06-24T11:39:39;13.90;;;12.00;;
32491;SDS011;20605;49.742;18.802;2023-06-24T11:42:08;14.90;;;12.60;;
32491;SDS011;20605;49.742;18.802;2023-06-24T11:44:34;13.30;;;11.20;;
32491;SDS011;20605;49.742;18.802;2023-06-24T11:47:05;13.60;;;12.20;;
32491;SDS011;20605;49.742;18.802;2023-06-24T11:49:31;15.00;;;12.80;;
32491;SDS011;20605;49.742;18.802;2023-06-24T11:51:57;17.50;;;12.60;;
32491;SDS011;20605;49.742;18.802;2023-06-24T11:54:23;12.80;;;11.50;;
32491;SDS011;20605;49.742;18.802;2023-06-24T11:56:52;13.60;;;12.20;;
32491;SDS011;20605;49.742;18.802;2023-06-24T11:59:19;14.40;;;12.80;;
32491;SDS011;20605;49.742;18.802;2023-06-24T12:01:53;13.00;;;11.60;;
32491;SDS011;20605;49.742;18.802;2023-06-24T12:04:21;14.20;;;12.80;;
32491;SDS011;20605;49.742;18.802;2023-06-24T12:06:52;14.90;;;12.70;;
32491;SDS011;20605;49.742;18.802;2023-06-24T12:09:18;14.90;;;12.60;;
32491;SDS011;20605;49.742;18.802;2023-06-24T12:11:43;16.70;;;13.50;;
32491;SDS011;20605;49.742;18.802;2023-06-24T12:14:10;16.40;;;13.30;;
32491;SDS011;20605;49.742;18.802;2023-06-24T12:16:36;16.70;;;14.10;;
32491;SDS011;20605;49.742;18.802;2023-06-24T12:19:02;16.80;;;14.30;;
32491;SDS011;20605;49.742;18.802;2023-06-24T12:21:28;14.90;;;13.40;;
32491;SDS011;20605;49.742;18.802;2023-06-24T12:23:53;16.10;;;12.30;;
32491;SDS011;20605;49.742;18.802;2023-06-24T12:26:19;13.70;;;12.40;;
32491;SDS011;20605;49.742;18.802;2023-06-24T12:28:44;14.90;;;12.20;;
32491;SDS011;20605;49.742;18.802;2023-06-24T12:31:10;12.80;;;11.30;;
32491;SDS011;20605;49.742;18.802;2023-06-24T12:33:36;14.30;;;12.00;;
32491;SDS011;20605;49.742;18.802;2023-06-24T12:36:02;14.80;;;12.00;;
32491;SDS011;20605;49.742;18.802;2023-06-24T12:38:28;14.40;;;12.90;;
32491;SDS011;20605;49.742;18.802;2023-06-24T12:40:54;13.70;;;12.30;;
32491;SDS011;20605;49.742;18.802;2023-06-24T12:43:19;16.40;;;14.70;;
32491;SDS011;20605;49.742;18.802;2023-06-24T12:45:45;20.40;;;18.30;;
32491;SDS011;20605;49.742;18.802;2023-06-24T12:48:12;16.20;;;14.60;;
32491;SDS011;20605;49.742;18.802;2023-06-24T12:50:38;14.10;;;12.70;;
32491;SDS011;20605;49.742;18.802;2023-06-24T12:53:04;12.80;;;11.30;;
32491;SDS011;20605;49.742;18.802;2023-06-24T12:55:30;13.40;;;11.00;;
32491;SDS011;20605;49.742;18.802;2023-06-24T12:57:55;12.30;;;11.00;;
32491;SDS011;20605;49.742;18.802;2023-06-24T13:00:22;11.50;;;10.40;;
32491;SDS011;20605;49.742;18.802;2023-06-24T13:02:48;11.60;;;10.40;;
32491;SDS011;20605;49.742;18.802;2023-06-24T13:05:15;11.80;;;10.60;;
32491;SDS011;20605;49.742;18.802;2023-06-24T13:07:42;12.90;;;10.20;;
32491;SDS011;20605;49.742;18.802;2023-06-24T13:10:08;11.80;;;10.60;;
32491;SDS011;20605;49.742;18.802;2023-06-24T13:12:36;13.30;;;11.20;;
32491;SDS011;20605;49.742;18.802;2023-06-24T13:15:02;11.50;;;10.30;;
32491;SDS011;20605;49.742;18.802;2023-06-24T13:17:31;13.50;;;12.00;;
32491;SDS011;20605;49.742;18.802;2023-06-24T13:19:57;15.20;;;13.70;;
32491;SDS011;20605;49.742;18.802;2023-06-24T13:22:23;16.90;;;14.20;;
32491;SDS011;20605;49.742;18.802;2023-06-24T13:24:49;16.70;;;14.40;;
32491;SDS011;20605;49.742;18.802;2023-06-24T13:27:15;19.00;;;17.00;;
32491;SDS011;20605;49.742;18.802;2023-06-24T13:29:42;19.40;;;16.80;;
32491;SDS011;20605;49.742;18.802;2023-06-24T13:32:08;19.90;;;17.80;;
32491;SDS011;20605;49.742;18.802;2023-06-24T13:34:34;20.70;;;18.60;;
32491;SDS011;20605;49.742;18.802;2023-06-24T13:37:00;21.10;;;19.00;;
32491;SDS011;20605;49.742;18.802;2023-06-24T13:39:26;20.40;;;17.70;;
32491;SDS011;20605;49.742;18.802;2023-06-24T13:41:52;19.80;;;17.80;;
32491;SDS011;20605;49.742;18.802;2023-06-24T13:44:18;19.90;;;17.80;;
32491;SDS011;20605;49.742;18.802;2023-06-24T13:46:44;19.30;;;17.40;;
32491;SDS011;20605;49.742;18.802;2023-06-24T13:49:10;19.40;;;17.50;;
32491;SDS011;20605;49.742;18.802;2023-06-24T13:51:36;17.80;;;16.00;;
32491;SDS011;20605;49.742;18.802;2023-06-24T13:54:02;16.60;;;14.90;;
32491;SDS011;20605;49.742;18.802;2023-06-24T13:56:29;18.10;;;15.20;;
32491;SDS011;20605;49.742;18.802;2023-06-24T13:58:54;16.90;;;15.20;;
32491;SDS011;20605;49.742;18.802;2023-06-24T14:01:21;16.50;;;14.70;;
32491;SDS011;20605;49.742;18.802;2023-06-24T14:03:48;17.40;;;15.70;;
32491;SDS011;20605;49.742;18.802;2023-06-24T14:06:15;16.90;;;15.10;;
32491;SDS011;20605;49.742;18.802;2023-06-24T14:08:43;15.40;;;14.00;;
32491;SDS011;20605;49.742;18.802;2023-06-24T14:11:10;17.30;;;14.50;;
32491;SDS011;20605;49.742;18.802;2023-06-24T14:13:36;16.80;;;14.20;;
32491;SDS011;20605;49.742;18.802;2023-06-24T14:16:02;17.40;;;14.50;;
32491;SDS011;20605;49.742;18.802;2023-06-24T14:18:31;18.10;;;16.20;;
32491;SDS011;20605;49.742;18.802;2023-06-24T14:20:58;15.90;;;14.10;;
32491;SDS011;20605;49.742;18.802;2023-06-24T14:23:25;16.70;;;14.90;;
32491;SDS011;20605;49.742;18.802;2023-06-24T14:25:54;16.50;;;14.80;;
32491;SDS011;20605;49.742;18.802;2023-06-24T14:28:20;19.30;;;14.90;;
32491;SDS011;20605;49.742;18.802;2023-06-24T14:30:46;16.20;;;13.50;;
32491;SDS011;20605;49.742;18.802;2023-06-24T14:33:13;14.20;;;12.70;;
32491;SDS011;20605;49.742;18.802;2023-06-24T14:35:39;12.50;;;11.20;;
32491;SDS011;20605;49.742;18.802;2023-06-24T14:38:05;12.60;;;11.40;;
32491;SDS011;20605;49.742;18.802;2023-06-24T14:40:31;11.60;;;8.50;;
32491;SDS011;20605;49.742;18.802;2023-06-24T14:42:57;9.30;;;8.20;;
32491;SDS011;20605;49.742;18.802;2023-06-24T14:45:23;12.80;;;9.00;;
32491;SDS011;20605;49.742;18.802;2023-06-24T14:47:48;9.00;;;8.10;;
32491;SDS011;20605;49.742;18.802;2023-06-24T14:50:14;9.70;;;7.80;;
32491;SDS011;20605;49.742;18.802;2023-06-24T14:52:40;10.60;;;8.00;;
32491;SDS011;20605;49.742;18.802;2023-06-24T14:55:06;12.50;;;8.60;;
32491;SDS011;20605;49.742;18.802;2023-06-24T14:57:31;11.70;;;9.20;;
32491;SDS011;20605;49.742;18.802;2023-06-24T14:59:57;9.60;;;8.60;;
32491;SDS011;20605;49.742;18.802;2023-06-24T15:02:23;10.00;;;9.00;;
32491;SDS011;20605;49.742;18.802;2023-06-24T15:04:51;9.70;;;8.70;;
32491;SDS011;20605;49.742;18.802;2023-06-24T15:07:16;10.70;;;9.40;;
32491;SDS011;20605;49.742;18.802;2023-06-24T15:09:42;9.70;;;8.60;;
32491;SDS011;20605;49.742;18.802;2023-06-24T15:12:08;11.50;;;10.20;;
32491;SDS011;20605;49.742;18.802;2023-06-24T15:14:34;11.10;;;9.90;;
32491;SDS011;20605;49.742;18.802;2023-06-24T15:17:00;11.90;;;10.60;;
32491;SDS011;20605;49.742;18.802;2023-06-24T15:19:25;11.40;;;9.70;;
32491;SDS011;20605;49.742;18.802;2023-06-24T15:21:51;9.30;;;8.40;;
32491;SDS011;20605;49.742;18.802;2023-06-24T15:24:17;10.80;;;8.80;;
32491;SDS011;20605;49.742;18.802;2023-06-24T15:26:42;28.20;;;20.30;;
32491;SDS011;20605;49.742;18.802;2023-06-24T15:29:08;18.10;;;16.20;;
32491;SDS011;20605;49.742;18.802;2023-06-24T15:31:33;14.20;;;10.40;;
32491;SDS011;20605;49.742;18.802;2023-06-24T15:33:59;10.70;;;9.60;;
32491;SDS011;20605;49.742;18.802;2023-06-24T15:36:24;10.00;;;8.30;;
32491;SDS011;20605;49.742;18.802;2023-06-24T15:38:52;10.30;;;7.50;;
32491;SDS011;20605;49.742;18.802;2023-06-24T15:41:18;9.70;;;7.70;;
32491;SDS011;20605;49.742;18.802;2023-06-24T15:43:44;8.30;;;7.30;;
32491;SDS011;20605;49.742;18.802;2023-06-24T15:46:09;10.50;;;7.40;;
32491;SDS011;20605;49.742;18.802;2023-06-24T15:48:35;9.20;;;7.40;;
32491;SDS011;20605;49.742;18.802;2023-06-24T15:51:04;8.80;;;7.90;;
32491;SDS011;20605;49.742;18.802;2023-06-24T15:53:30;9.00;;;8.10;;
32491;SDS011;20605;49.742;18.802;2023-06-24T15:55:55;8.30;;;7.50;;
32491;SDS011;20605;49.742;18.802;2023-06-24T15:58:21;8.50;;;7.70;;
32491;SDS011;20605;49.742;18.802;2023-06-24T16:00:46;9.00;;;7.60;;
32491;SDS011;20605;49.742;18.802;2023-06-24T16:03:12;8.20;;;7.40;;
32491;SDS011;20605;49.742;18.802;2023-06-24T16:05:38;10.40;;;8.00;;
32491;SDS011;20605;49.742;18.802;2023-06-24T16:08:04;7.90;;;7.10;;
32491;SDS011;20605;49.742;18.802;2023-06-24T16:10:30;8.70;;;7.70;;
32491;SDS011;20605;49.742;18.802;2023-06-24T16:12:56;8.30;;;6.80;;
32491;SDS011;20605;49.742;18.802;2023-06-24T16:15:21;7.80;;;7.10;;
32491;SDS011;20605;49.742;18.802;2023-06-24T16:17:47;9.40;;;7.50;;
32491;SDS011;20605;49.742;18.802;2023-06-24T16:20:12;7.80;;;7.00;;
32491;SDS011;20605;49.742;18.802;2023-06-24T16:22:42;10.60;;;7.80;;
32491;SDS011;20605;49.742;18.802;2023-06-24T16:25:08;7.70;;;7.00;;
32491;SDS011;20605;49.742;18.802;2023-06-24T16:27:34;10.10;;;7.30;;
32491;SDS011;20605;49.742;18.802;2023-06-24T16:29:59;8.30;;;7.50;;
32491;SDS011;20605;49.742;18.802;2023-06-24T16:32:25;10.10;;;7.70;;
32491;SDS011;20605;49.742;18.802;2023-06-24T16:34:51;8.00;;;7.30;;
32491;SDS011;20605;49.742;18.802;2023-06-24T16:37:16;9.40;;;7.80;;
32491;SDS011;20605;49.742;18.802;2023-06-24T16:39:42;10.70;;;8.40;;
32491;SDS011;20605;49.742;18.802;2023-06-24T16:42:08;8.50;;;7.40;;
32491;SDS011;20605;49.742;18.802;2023-06-24T16:44:33;9.10;;;8.10;;
32491;SDS011;20605;49.742;18.802;2023-06-24T16:47:02;10.10;;;8.00;;
32491;SDS011;20605;49.742;18.802;2023-06-24T16:49:28;9.20;;;7.80;;
32491;SDS011;20605;49.742;18.802;2023-06-24T16:51:54;9.20;;;7.40;;
32491;SDS011;20605;49.742;18.802;2023-06-24T16:54:20;9.90;;;8.40;;
32491;SDS011;20605;49.742;18.802;2023-06-24T16:56:47;9.40;;;8.50;;
32491;SDS011;20605;49.742;18.802;2023-06-24T16:59:13;10.20;;;9.20;;
32491;SDS011;20605;49.742;18.802;2023-06-24T17:01:39;11.10;;;8.00;;
32491;SDS011;20605;49.742;18.802;2023-06-24T17:04:04;8.70;;;7.80;;
32491;SDS011;20605;49.742;18.802;2023-06-24T17:06:31;9.60;;;8.00;;
32491;SDS011;20605;49.742;18.802;2023-06-24T17:08:57;9.00;;;8.00;;
32491;SDS011;20605;49.742;18.802;2023-06-24T17:11:23;9.60;;;8.30;;
32491;SDS011;20605;49.742;18.802;2023-06-24T17:13:49;8.70;;;7.80;;
32491;SDS011;20605;49.742;18.802;2023-06-24T17:16:15;10.80;;;8.40;;
32491;SDS011;20605;49.742;18.802;2023-06-24T17:18:42;9.80;;;8.70;;
32491;SDS011;20605;49.742;18.802;2023-06-24T17:21:07;9.90;;;8.90;;
32491;SDS011;20605;49.742;18.802;2023-06-24T17:23:33;14.30;;;9.30;;
32491;SDS011;20605;49.742;18.802;2023-06-24T17:25:59;9.50;;;8.50;;
32491;SDS011;20605;49.742;18.802;2023-06-24T17:28:25;11.10;;;9.30;;
32491;SDS011;20605;49.742;18.802;2023-06-24T17:30:51;11.80;;;9.50;;
32491;SDS011;20605;49.742;18.802;2023-06-24T17:33:17;10.00;;;9.00;;
32491;SDS011;20605;49.742;18.802;2023-06-24T17:35:42;9.10;;;8.20;;
32491;SDS011;20605;49.742;18.802;2023-06-24T17:38:08;10.20;;;8.20;;
32491;SDS011;20605;49.742;18.802;2023-06-24T17:40:34;9.00;;;8.00;;
32491;SDS011;20605;49.742;18.802;2023-06-24T17:42:59;9.90;;;8.40;;
32491;SDS011;20605;49.742;18.802;2023-06-24T17:45:26;10.20;;;8.90;;
32491;SDS011;20605;49.742;18.802;2023-06-24T17:47:52;14.40;;;9.60;;
32491;SDS011;20605;49.742;18.802;2023-06-24T17:50:20;10.90;;;9.20;;
32491;SDS011;20605;49.742;18.802;2023-06-24T17:52:47;10.90;;;8.70;;
32491;SDS011;20605;49.742;18.802;2023-06-24T17:55:13;10.00;;;9.00;;
32491;SDS011;20605;49.742;18.802;2023-06-24T17:57:38;10.40;;;9.30;;
32491;SDS011;20605;49.742;18.802;2023-06-24T18:00:04;10.80;;;9.80;;
32491;SDS011;20605;49.742;18.802;2023-06-24T18:02:31;10.50;;;9.30;;
32491;SDS011;20605;49.742;18.802;2023-06-24T18:04:56;14.90;;;9.70;;
32491;SDS011;20605;49.742;18.802;2023-06-24T18:07:22;12.90;;;9.60;;
32491;SDS011;20605;49.742;18.802;2023-06-24T18:09:47;10.70;;;8.60;;
32491;SDS011;20605;49.742;18.802;2023-06-24T18:12:14;9.80;;;8.40;;
32491;SDS011;20605;49.742;18.802;2023-06-24T18:14:39;9.30;;;8.20;;
32491;SDS011;20605;49.742;18.802;2023-06-24T18:17:05;9.10;;;8.20;;
32491;SDS011;20605;49.742;18.802;2023-06-24T18:19:31;11.40;;;9.00;;
32491;SDS011;20605;49.742;18.802;2023-06-24T18:21:57;12.00;;;8.40;;
32491;SDS011;20605;49.742;18.802;2023-06-24T18:24:22;10.00;;;8.70;;
32491;SDS011;20605;49.742;18.802;2023-06-24T18:26:48;11.10;;;9.10;;
32491;SDS011;20605;49.742;18.802;2023-06-24T18:29:14;10.80;;;9.00;;
32491;SDS011;20605;49.742;18.802;2023-06-24T18:31:40;10.10;;;9.10;;
32491;SDS011;20605;49.742;18.802;2023-06-24T18:34:09;11.80;;;10.60;;
32491;SDS011;20605;49.742;18.802;2023-06-24T18:36:35;13.70;;;12.20;;
32491;SDS011;20605;49.742;18.802;2023-06-24T18:39:01;11.20;;;9.70;;
32491;SDS011;20605;49.742;18.802;2023-06-24T18:41:27;13.00;;;9.60;;
32491;SDS011;20605;49.742;18.802;2023-06-24T18:43:53;11.60;;;10.40;;
32491;SDS011;20605;49.742;18.802;2023-06-24T18:46:19;14.30;;;10.90;;
32491;SDS011;20605;49.742;18.802;2023-06-24T18:48:45;12.20;;;10.80;;
32491;SDS011;20605;49.742;18.802;2023-06-24T18:51:10;12.10;;;10.80;;
32491;SDS011;20605;49.742;18.802;2023-06-24T18:53:36;12.60;;;11.40;;
32491;SDS011;20605;49.742;18.802;2023-06-24T18:56:02;13.00;;;11.00;;
32491;SDS011;20605;49.742;18.802;2023-06-24T18:58:28;12.20;;;11.00;;
32491;SDS011;20605;49.742;18.802;2023-06-24T19:00:55;12.40;;;11.20;;
32491;SDS011;20605;49.742;18.802;2023-06-24T19:03:21;14.60;;;10.90;;
32491;SDS011;20605;49.742;18.802;2023-06-24T19:05:47;14.20;;;11.80;;
32491;SDS011;20605;49.742;18.802;2023-06-24T19:08:12;14.50;;;11.60;;
32491;SDS011;20605;49.742;18.802;2023-06-24T19:10:38;11.90;;;10.70;;
32491;SDS011;20605;49.742;18.802;2023-06-24T19:13:04;13.50;;;10.40;;
32491;SDS011;20605;49.742;18.802;2023-06-24T19:15:30;15.70;;;10.90;;
32491;SDS011;20605;49.742;18.802;2023-06-24T19:17:56;11.10;;;9.70;;
32491;SDS011;20605;49.742;18.802;2023-06-24T19:20:21;12.90;;;9.60;;
32491;SDS011;20605;49.742;18.802;2023-06-24T19:22:47;14.30;;;9.90;;
32491;SDS011;20605;49.742;18.802;2023-06-24T19:25:13;10.50;;;9.50;;
32491;SDS011;20605;49.742;18.802;2023-06-24T19:27:39;13.40;;;9.90;;
32491;SDS011;20605;49.742;18.802;2023-06-24T19:30:05;13.10;;;8.30;;
32491;SDS011;20605;49.742;18.802;2023-06-24T19:32:31;10.50;;;9.40;;
32491;SDS011;20605;49.742;18.802;2023-06-24T19:34:58;10.40;;;9.10;;
32491;SDS011;20605;49.742;18.802;2023-06-24T19:37:25;10.70;;;9.70;;
32491;SDS011;20605;49.742;18.802;2023-06-24T19:39:51;10.20;;;9.10;;
32491;SDS011;20605;49.742;18.802;2023-06-24T19:42:17;10.60;;;9.60;;
32491;SDS011;20605;49.742;18.802;2023-06-24T19:44:43;9.70;;;8.60;;
32491;SDS011;20605;49.742;18.802;2023-06-24T19:47:08;10.40;;;9.20;;
32491;SDS011;20605;49.742;18.802;2023-06-24T19:49:37;12.00;;;9.70;;
32491;SDS011;20605;49.742;18.802;2023-06-24T19:52:13;12.80;;;9.90;;
32491;SDS011;20605;49.742;18.802;2023-06-24T19:54:39;14.30;;;9.80;;
32491;SDS011;20605;49.742;18.802;2023-06-24T19:57:04;9.80;;;8.60;;
32491;SDS011;20605;49.742;18.802;2023-06-24T19:59:30;11.70;;;8.50;;
32491;SDS011;20605;49.742;18.802;2023-06-24T20:01:56;10.40;;;9.20;;
32491;SDS011;20605;49.742;18.802;2023-06-24T20:04:21;10.80;;;9.30;;
32491;SDS011;20605;49.742;18.802;2023-06-24T20:06:47;11.20;;;9.80;;
32491;SDS011;20605;49.742;18.802;2023-06-24T20:09:13;10.60;;;9.40;;
32491;SDS011;20605;49.742;18.802;2023-06-24T20:11:39;10.60;;;9.60;;
32491;SDS011;20605;49.742;18.802;2023-06-24T20:14:05;10.40;;;8.90;;
32491;SDS011;20605;49.742;18.802;2023-06-24T20:16:30;10.20;;;9.10;;
32491;SDS011;20605;49.742;18.802;2023-06-24T20:18:57;9.80;;;8.90;;
32491;SDS011;20605;49.742;18.802;2023-06-24T20:21:22;9.80;;;8.80;;
32491;SDS011;20605;49.742;18.802;2023-06-24T20:23:48;11.20;;;9.70;;
32491;SDS011;20605;49.742;18.802;2023-06-24T20:26:14;13.20;;;9.30;;
32491;SDS011;20605;49.742;18.802;2023-06-24T20:28:40;11.40;;;9.80;;
32491;SDS011;20605;49.742;18.802;2023-06-24T20:31:05;12.00;;;9.60;;
32491;SDS011;20605;49.742;18.802;2023-06-24T20:33:31;10.50;;;9.50;;
32491;SDS011;20605;49.742;18.802;2023-06-24T20:35:58;11.50;;;9.50;;
32491;SDS011;20605;49.742;18.802;2023-06-24T20:38:23;11.00;;;9.60;;
32491;SDS011;20605;49.742;18.802;2023-06-24T20:40:50;10.70;;;9.30;;
32491;SDS011;20605;49.742;18.802;2023-06-24T20:43:20;11.80;;;9.70;;
32491;SDS011;20605;49.742;18.802;2023-06-24T20:45:48;11.80;;;9.80;;
32491;SDS011;20605;49.742;18.802;2023-06-24T20:48:18;14.50;;;11.20;;
32491;SDS011;20605;49.742;18.802;2023-06-24T20:50:44;13.20;;;10.50;;
32491;SDS011;20605;49.742;18.802;2023-06-24T20:53:10;12.10;;;10.00;;
32491;SDS011;20605;49.742;18.802;2023-06-24T20:55:36;11.50;;;9.30;;
32491;SDS011;20605;49.742;18.802;2023-06-24T20:58:05;11.00;;;9.60;;
32491;SDS011;20605;49.742;18.802;2023-06-24T21:00:31;11.00;;;9.50;;
32491;SDS011;20605;49.742;18.802;2023-06-24T21:02:57;11.20;;;10.10;;
32491;SDS011;20605;49.742;18.802;2023-06-24T21:05:23;15.40;;;10.00;;
32491;SDS011;20605;49.742;18.802;2023-06-24T21:07:48;11.50;;;9.20;;
32491;SDS011;20605;49.742;18.802;2023-06-24T21:10:15;11.70;;;10.40;;
32491;SDS011;20605;49.742;18.802;2023-06-24T21:12:41;10.30;;;9.30;;
32491;SDS011;20605;49.742;18.802;2023-06-24T21:15:07;12.10;;;10.70;;
32491;SDS011;20605;49.742;18.802;2023-06-24T21:17:34;11.20;;;9.60;;
32491;SDS011;20605;49.742;18.802;2023-06-24T21:20:00;11.80;;;9.80;;
32491;SDS011;20605;49.742;18.802;2023-06-24T21:22:26;12.20;;;11.00;;
32491;SDS011;20605;49.742;18.802;2023-06-24T21:24:52;12.70;;;10.80;;
32491;SDS011;20605;49.742;18.802;2023-06-24T21:27:17;11.90;;;10.60;;
32491;SDS011;20605;49.742;18.802;2023-06-24T21:29:43;12.20;;;9.90;;
32491;SDS011;20605;49.742;18.802;2023-06-24T21:32:09;13.20;;;10.50;;
32491;SDS011;20605;49.742;18.802;2023-06-24T21:34:35;13.60;;;10.20;;